sensor_id;sensor_type;location;lat;lon;timestamp;P1;durP1;ratioP1;P2;durP2;ratioP2
62673;SDS011;62269;47.594;17.638;2023-07-22T00:00:37;20.02;;;12.55;;
62673;SDS011;62269;47.594;17.638;2023-07-22T00:01:34;13.32;;;11.98;;
62673;SDS011;62269;47.594;17.638;2023-07-22T00:02:33;13.95;;;12.63;;
62673;SDS011;62269;47.594;17.638;2023-07-22T00:03:30;17.98;;;12.68;;
62673;SDS011;62269;47.594;17.638;2023-07-22T00:04:27;14.70;;;12.02;;
62673;SDS011;62269;47.594;17.638;2023-07-22T00:05:24;13.68;;;11.93;;
62673;SDS011;62269;47.594;17.638;2023-07-22T00:06:22;14.23;;;12.07;;
62673;SDS011;62269;47.594;17.638;2023-07-22T00:07:19;13.73;;;11.85;;
62673;SDS011;62269;47.594;17.638;2023-07-22T00:08:16;14.30;;;11.77;;
62673;SDS011;62269;47.594;17.638;2023-07-22T00:09:13;19.60;;;12.70;;
62673;SDS011;62269;47.594;17.638;2023-07-22T00:10:10;14.73;;;12.37;;
62673;SDS011;62269;47.594;17.638;2023-07-22T00:11:07;16.83;;;11.73;;
62673;SDS011;62269;47.594;17.638;2023-07-22T00:12:05;14.02;;;12.50;;
62673;SDS011;62269;47.594;17.638;2023-07-22T00:13:02;16.87;;;12.63;;
62673;SDS011;62269;47.594;17.638;2023-07-22T00:13:59;14.30;;;12.77;;
62673;SDS011;62269;47.594;17.638;2023-07-22T00:14:56;20.25;;;13.52;;
62673;SDS011;62269;47.594;17.638;2023-07-22T00:15:54;16.83;;;13.45;;
62673;SDS011;62269;47.594;17.638;2023-07-22T00:16:51;16.80;;;13.27;;
62673;SDS011;62269;47.594;17.638;2023-07-22T00:17:48;16.25;;;13.82;;
62673;SDS011;62269;47.594;17.638;2023-07-22T00:18:45;15.55;;;12.55;;
62673;SDS011;62269;47.594;17.638;2023-07-22T00:19:44;15.75;;;13.48;;
62673;SDS011;62269;47.594;17.638;2023-07-22T00:20:41;15.95;;;13.68;;
62673;SDS011;62269;47.594;17.638;2023-07-22T00:21:38;17.23;;;13.23;;
62673;SDS011;62269;47.594;17.638;2023-07-22T00:22:34;13.82;;;12.40;;
62673;SDS011;62269;47.594;17.638;2023-07-22T00:23:32;17.75;;;13.98;;
62673;SDS011;62269;47.594;17.638;2023-07-22T00:24:29;17.02;;;12.60;;
62673;SDS011;62269;47.594;17.638;2023-07-22T00:25:26;17.85;;;12.75;;
62673;SDS011;62269;47.594;17.638;2023-07-22T00:26:23;14.80;;;12.95;;
62673;SDS011;62269;47.594;17.638;2023-07-22T00:27:21;15.45;;;13.85;;
62673;SDS011;62269;47.594;17.638;2023-07-22T00:28:18;18.87;;;13.52;;
62673;SDS011;62269;47.594;17.638;2023-07-22T00:29:15;17.92;;;14.15;;
62673;SDS011;62269;47.594;17.638;2023-07-22T00:30:13;15.73;;;13.20;;
62673;SDS011;62269;47.594;17.638;2023-07-22T00:31:10;16.48;;;14.73;;
62673;SDS011;62269;47.594;17.638;2023-07-22T00:32:07;18.67;;;14.93;;
62673;SDS011;62269;47.594;17.638;2023-07-22T00:33:05;20.67;;;15.20;;
62673;SDS011;62269;47.594;17.638;2023-07-22T00:34:02;19.37;;;14.50;;
62673;SDS011;62269;47.594;17.638;2023-07-22T00:34:59;18.37;;;15.27;;
62673;SDS011;62269;47.594;17.638;2023-07-22T00:35:56;18.02;;;15.07;;
62673;SDS011;62269;47.594;17.638;2023-07-22T00:36:53;19.20;;;14.68;;
62673;SDS011;62269;47.594;17.638;2023-07-22T00:37:51;16.73;;;14.82;;
62673;SDS011;62269;47.594;17.638;2023-07-22T00:38:48;17.70;;;15.77;;
62673;SDS011;62269;47.594;17.638;2023-07-22T00:39:45;17.17;;;15.35;;
62673;SDS011;62269;47.594;17.638;2023-07-22T00:40:42;19.48;;;15.52;;
62673;SDS011;62269;47.594;17.638;2023-07-22T00:41:40;20.08;;;16.17;;
62673;SDS011;62269;47.594;17.638;2023-07-22T00:42:39;19.87;;;16.85;;
62673;SDS011;62269;47.594;17.638;2023-07-22T00:43:36;18.58;;;16.50;;
62673;SDS011;62269;47.594;17.638;2023-07-22T00:44:35;22.48;;;18.15;;
62673;SDS011;62269;47.594;17.638;2023-07-22T00:45:33;19.60;;;16.80;;
62673;SDS011;62269;47.594;17.638;2023-07-22T00:46:30;20.45;;;16.55;;
62673;SDS011;62269;47.594;17.638;2023-07-22T00:47:27;22.65;;;16.92;;
62673;SDS011;62269;47.594;17.638;2023-07-22T00:48:24;19.37;;;17.00;;
62673;SDS011;62269;47.594;17.638;2023-07-22T00:49:22;20.58;;;18.25;;
62673;SDS011;62269;47.594;17.638;2023-07-22T00:50:20;20.27;;;17.98;;
62673;SDS011;62269;47.594;17.638;2023-07-22T00:51:18;21.52;;;19.30;;
62673;SDS011;62269;47.594;17.638;2023-07-22T00:52:17;21.12;;;18.67;;
62673;SDS011;62269;47.594;17.638;2023-07-22T00:53:14;23.23;;;18.35;;
62673;SDS011;62269;47.594;17.638;2023-07-22T00:54:11;23.27;;;18.65;;
62673;SDS011;62269;47.594;17.638;2023-07-22T00:55:08;23.48;;;18.73;;
62673;SDS011;62269;47.594;17.638;2023-07-22T00:56:05;21.67;;;17.70;;
62673;SDS011;62269;47.594;17.638;2023-07-22T00:57:03;23.67;;;17.50;;
62673;SDS011;62269;47.594;17.638;2023-07-22T00:58:00;19.77;;;17.70;;
62673;SDS011;62269;47.594;17.638;2023-07-22T00:58:57;23.12;;;18.23;;
62673;SDS011;62269;47.594;17.638;2023-07-22T00:59:54;20.75;;;16.87;;
62673;SDS011;62269;47.594;17.638;2023-07-22T01:00:51;22.85;;;17.48;;
62673;SDS011;62269;47.594;17.638;2023-07-22T01:01:49;22.95;;;18.80;;
62673;SDS011;62269;47.594;17.638;2023-07-22T01:02:46;23.95;;;18.25;;
62673;SDS011;62269;47.594;17.638;2023-07-22T01:03:43;20.15;;;17.27;;
62673;SDS011;62269;47.594;17.638;2023-07-22T01:04:42;20.05;;;17.90;;
62673;SDS011;62269;47.594;17.638;2023-07-22T01:05:39;25.08;;;19.30;;
62673;SDS011;62269;47.594;17.638;2023-07-22T01:06:38;22.52;;;18.23;;
62673;SDS011;62269;47.594;17.638;2023-07-22T01:07:35;23.52;;;19.60;;
62673;SDS011;62269;47.594;17.638;2023-07-22T01:08:33;23.60;;;19.08;;
62673;SDS011;62269;47.594;17.638;2023-07-22T01:09:34;22.80;;;19.15;;
62673;SDS011;62269;47.594;17.638;2023-07-22T01:10:34;21.92;;;19.23;;
62673;SDS011;62269;47.594;17.638;2023-07-22T01:11:31;24.12;;;19.17;;
62673;SDS011;62269;47.594;17.638;2023-07-22T01:12:28;24.17;;;19.95;;
62673;SDS011;62269;47.594;17.638;2023-07-22T01:13:25;24.27;;;18.50;;
62673;SDS011;62269;47.594;17.638;2023-07-22T01:14:22;26.15;;;19.60;;
62673;SDS011;62269;47.594;17.638;2023-07-22T01:15:19;24.48;;;18.90;;
62673;SDS011;62269;47.594;17.638;2023-07-22T01:16:16;26.55;;;20.40;;
62673;SDS011;62269;47.594;17.638;2023-07-22T01:17:13;23.38;;;20.65;;
62673;SDS011;62269;47.594;17.638;2023-07-22T01:18:11;24.95;;;20.37;;
62673;SDS011;62269;47.594;17.638;2023-07-22T01:19:08;23.35;;;21.05;;
62673;SDS011;62269;47.594;17.638;2023-07-22T01:20:06;23.70;;;21.25;;
62673;SDS011;62269;47.594;17.638;2023-07-22T01:21:04;23.40;;;20.33;;
62673;SDS011;62269;47.594;17.638;2023-07-22T01:22:03;22.45;;;19.45;;
62673;SDS011;62269;47.594;17.638;2023-07-22T01:23:07;25.00;;;19.95;;
62673;SDS011;62269;47.594;17.638;2023-07-22T01:24:04;23.67;;;20.12;;
62673;SDS011;62269;47.594;17.638;2023-07-22T01:25:02;27.98;;;20.25;;
62673;SDS011;62269;47.594;17.638;2023-07-22T01:25:59;27.48;;;20.80;;
62673;SDS011;62269;47.594;17.638;2023-07-22T01:26:57;21.12;;;18.92;;
62673;SDS011;62269;47.594;17.638;2023-07-22T01:27:54;22.40;;;19.23;;
62673;SDS011;62269;47.594;17.638;2023-07-22T01:29:01;20.95;;;18.27;;
62673;SDS011;62269;47.594;17.638;2023-07-22T01:29:59;20.02;;;17.92;;
62673;SDS011;62269;47.594;17.638;2023-07-22T01:30:58;19.48;;;17.40;;
62673;SDS011;62269;47.594;17.638;2023-07-22T01:31:55;21.87;;;18.30;;
62673;SDS011;62269;47.594;17.638;2023-07-22T01:32:52;23.30;;;20.08;;
62673;SDS011;62269;47.594;17.638;2023-07-22T01:33:49;22.30;;;18.75;;
62673;SDS011;62269;47.594;17.638;2023-07-22T01:34:48;24.20;;;21.02;;
62673;SDS011;62269;47.594;17.638;2023-07-22T01:35:45;24.67;;;21.48;;
62673;SDS011;62269;47.594;17.638;2023-07-22T01:36:43;26.92;;;22.00;;
62673;SDS011;62269;47.594;17.638;2023-07-22T01:37:41;27.40;;;21.90;;
62673;SDS011;62269;47.594;17.638;2023-07-22T01:38:38;24.17;;;21.58;;
62673;SDS011;62269;47.594;17.638;2023-07-22T01:39:35;23.58;;;20.50;;
62673;SDS011;62269;47.594;17.638;2023-07-22T01:40:32;24.23;;;21.27;;
62673;SDS011;62269;47.594;17.638;2023-07-22T01:41:29;22.40;;;20.10;;
62673;SDS011;62269;47.594;17.638;2023-07-22T01:42:26;23.23;;;20.37;;
62673;SDS011;62269;47.594;17.638;2023-07-22T01:43:23;23.95;;;21.35;;
62673;SDS011;62269;47.594;17.638;2023-07-22T01:44:20;23.90;;;21.25;;
62673;SDS011;62269;47.594;17.638;2023-07-22T01:45:18;26.83;;;21.20;;
62673;SDS011;62269;47.594;17.638;2023-07-22T01:46:15;29.37;;;22.65;;
62673;SDS011;62269;47.594;17.638;2023-07-22T01:47:12;27.15;;;21.80;;
62673;SDS011;62269;47.594;17.638;2023-07-22T01:48:09;28.02;;;22.37;;
62673;SDS011;62269;47.594;17.638;2023-07-22T01:49:06;26.77;;;21.98;;
62673;SDS011;62269;47.594;17.638;2023-07-22T01:50:07;27.35;;;21.52;;
62673;SDS011;62269;47.594;17.638;2023-07-22T01:51:04;25.48;;;21.65;;
62673;SDS011;62269;47.594;17.638;2023-07-22T01:52:01;24.50;;;21.87;;
62673;SDS011;62269;47.594;17.638;2023-07-22T01:52:59;25.83;;;23.15;;
62673;SDS011;62269;47.594;17.638;2023-07-22T01:53:56;28.92;;;22.00;;
62673;SDS011;62269;47.594;17.638;2023-07-22T01:54:53;25.92;;;22.25;;
62673;SDS011;62269;47.594;17.638;2023-07-22T01:55:50;29.05;;;22.83;;
62673;SDS011;62269;47.594;17.638;2023-07-22T01:56:47;27.15;;;22.27;;
62673;SDS011;62269;47.594;17.638;2023-07-22T01:57:44;27.67;;;21.67;;
62673;SDS011;62269;47.594;17.638;2023-07-22T01:58:41;30.05;;;22.87;;
62673;SDS011;62269;47.594;17.638;2023-07-22T01:59:39;29.10;;;22.58;;
62673;SDS011;62269;47.594;17.638;2023-07-22T02:00:36;25.17;;;22.00;;
62673;SDS011;62269;47.594;17.638;2023-07-22T02:01:33;22.95;;;20.55;;
62673;SDS011;62269;47.594;17.638;2023-07-22T02:02:30;23.12;;;20.42;;
62673;SDS011;62269;47.594;17.638;2023-07-22T02:03:27;32.22;;;22.45;;
62673;SDS011;62269;47.594;17.638;2023-07-22T02:04:25;27.42;;;21.98;;
62673;SDS011;62269;47.594;17.638;2023-07-22T02:05:22;27.02;;;21.27;;
62673;SDS011;62269;47.594;17.638;2023-07-22T02:06:19;25.70;;;20.12;;
62673;SDS011;62269;47.594;17.638;2023-07-22T02:07:16;23.55;;;19.92;;
62673;SDS011;62269;47.594;17.638;2023-07-22T02:08:13;23.98;;;19.37;;
62673;SDS011;62269;47.594;17.638;2023-07-22T02:09:10;25.05;;;20.25;;
62673;SDS011;62269;47.594;17.638;2023-07-22T02:10:10;23.75;;;20.65;;
62673;SDS011;62269;47.594;17.638;2023-07-22T02:11:07;24.95;;;19.62;;
62673;SDS011;62269;47.594;17.638;2023-07-22T02:12:07;20.85;;;18.62;;
62673;SDS011;62269;47.594;17.638;2023-07-22T02:13:05;23.08;;;18.35;;
62673;SDS011;62269;47.594;17.638;2023-07-22T02:14:02;22.62;;;19.02;;
62673;SDS011;62269;47.594;17.638;2023-07-22T02:15:03;23.58;;;17.35;;
62673;SDS011;62269;47.594;17.638;2023-07-22T02:16:01;19.20;;;17.30;;
62673;SDS011;62269;47.594;17.638;2023-07-22T02:16:58;20.17;;;16.80;;
62673;SDS011;62269;47.594;17.638;2023-07-22T02:17:56;21.70;;;17.60;;
62673;SDS011;62269;47.594;17.638;2023-07-22T02:18:53;20.25;;;17.75;;
62673;SDS011;62269;47.594;17.638;2023-07-22T02:19:50;20.65;;;17.80;;
62673;SDS011;62269;47.594;17.638;2023-07-22T02:20:47;22.13;;;17.15;;
62673;SDS011;62269;47.594;17.638;2023-07-22T02:21:44;19.60;;;16.52;;
62673;SDS011;62269;47.594;17.638;2023-07-22T02:22:41;20.50;;;16.83;;
62673;SDS011;62269;47.594;17.638;2023-07-22T02:23:38;20.17;;;15.52;;
62673;SDS011;62269;47.594;17.638;2023-07-22T02:24:36;18.17;;;14.98;;
62673;SDS011;62269;47.594;17.638;2023-07-22T02:25:33;19.10;;;15.52;;
62673;SDS011;62269;47.594;17.638;2023-07-22T02:26:30;17.33;;;15.40;;
62673;SDS011;62269;47.594;17.638;2023-07-22T02:27:27;19.80;;;15.85;;
62673;SDS011;62269;47.594;17.638;2023-07-22T02:28:24;19.95;;;14.93;;
62673;SDS011;62269;47.594;17.638;2023-07-22T02:29:22;18.92;;;14.77;;
62673;SDS011;62269;47.594;17.638;2023-07-22T02:30:19;16.98;;;14.50;;
62673;SDS011;62269;47.594;17.638;2023-07-22T02:31:16;15.10;;;12.93;;
62673;SDS011;62269;47.594;17.638;2023-07-22T02:32:13;16.15;;;13.95;;
62673;SDS011;62269;47.594;17.638;2023-07-22T02:33:10;15.57;;;13.18;;
62673;SDS011;62269;47.594;17.638;2023-07-22T02:34:07;14.18;;;12.37;;
62673;SDS011;62269;47.594;17.638;2023-07-22T02:35:05;16.15;;;13.15;;
62673;SDS011;62269;47.594;17.638;2023-07-22T02:36:03;14.98;;;13.35;;
62673;SDS011;62269;47.594;17.638;2023-07-22T02:37:00;21.85;;;13.62;;
62673;SDS011;62269;47.594;17.638;2023-07-22T02:37:58;14.27;;;12.77;;
62673;SDS011;62269;47.594;17.638;2023-07-22T02:38:55;13.52;;;12.00;;
62673;SDS011;62269;47.594;17.638;2023-07-22T02:39:53;15.50;;;13.32;;
62673;SDS011;62269;47.594;17.638;2023-07-22T02:40:51;16.87;;;12.82;;
62673;SDS011;62269;47.594;17.638;2023-07-22T02:41:48;16.30;;;12.35;;
62673;SDS011;62269;47.594;17.638;2023-07-22T02:42:45;13.60;;;11.98;;
62673;SDS011;62269;47.594;17.638;2023-07-22T02:43:43;16.42;;;12.68;;
62673;SDS011;62269;47.594;17.638;2023-07-22T02:44:40;15.95;;;12.77;;
62673;SDS011;62269;47.594;17.638;2023-07-22T02:45:37;14.40;;;12.85;;
62673;SDS011;62269;47.594;17.638;2023-07-22T02:46:34;14.45;;;13.05;;
62673;SDS011;62269;47.594;17.638;2023-07-22T02:47:34;14.85;;;12.13;;
62673;SDS011;62269;47.594;17.638;2023-07-22T02:48:31;14.33;;;12.40;;
62673;SDS011;62269;47.594;17.638;2023-07-22T02:49:28;13.70;;;12.20;;
62673;SDS011;62269;47.594;17.638;2023-07-22T02:50:25;14.13;;;12.32;;
62673;SDS011;62269;47.594;17.638;2023-07-22T02:51:22;14.55;;;12.23;;
62673;SDS011;62269;47.594;17.638;2023-07-22T02:52:19;17.15;;;12.25;;
62673;SDS011;62269;47.594;17.638;2023-07-22T02:53:16;14.00;;;12.18;;
62673;SDS011;62269;47.594;17.638;2023-07-22T02:54:14;13.50;;;12.05;;
62673;SDS011;62269;47.594;17.638;2023-07-22T02:55:12;16.12;;;12.68;;
62673;SDS011;62269;47.594;17.638;2023-07-22T02:56:15;18.08;;;13.85;;
62673;SDS011;62269;47.594;17.638;2023-07-22T02:57:12;16.83;;;12.88;;
62673;SDS011;62269;47.594;17.638;2023-07-22T02:58:09;15.13;;;12.93;;
62673;SDS011;62269;47.594;17.638;2023-07-22T02:59:06;15.20;;;13.07;;
62673;SDS011;62269;47.594;17.638;2023-07-22T03:00:05;14.30;;;12.73;;
62673;SDS011;62269;47.594;17.638;2023-07-22T03:01:04;18.05;;;13.35;;
62673;SDS011;62269;47.594;17.638;2023-07-22T03:02:01;15.13;;;12.48;;
62673;SDS011;62269;47.594;17.638;2023-07-22T03:02:59;15.13;;;13.60;;
62673;SDS011;62269;47.594;17.638;2023-07-22T03:03:59;14.48;;;12.40;;
62673;SDS011;62269;47.594;17.638;2023-07-22T03:04:56;17.77;;;12.95;;
62673;SDS011;62269;47.594;17.638;2023-07-22T03:05:53;14.80;;;11.93;;
62673;SDS011;62269;47.594;17.638;2023-07-22T03:06:50;15.38;;;12.88;;
62673;SDS011;62269;47.594;17.638;2023-07-22T03:07:48;15.20;;;12.95;;
62673;SDS011;62269;47.594;17.638;2023-07-22T03:08:46;14.18;;;12.68;;
62673;SDS011;62269;47.594;17.638;2023-07-22T03:09:45;14.43;;;12.63;;
62673;SDS011;62269;47.594;17.638;2023-07-22T03:10:42;17.92;;;12.93;;
62673;SDS011;62269;47.594;17.638;2023-07-22T03:11:44;13.93;;;11.90;;
62673;SDS011;62269;47.594;17.638;2023-07-22T03:12:41;15.35;;;12.68;;
62673;SDS011;62269;47.594;17.638;2023-07-22T03:13:38;14.90;;;12.18;;
62673;SDS011;62269;47.594;17.638;2023-07-22T03:14:35;12.48;;;10.95;;
62673;SDS011;62269;47.594;17.638;2023-07-22T03:15:33;12.80;;;11.50;;
62673;SDS011;62269;47.594;17.638;2023-07-22T03:16:30;13.02;;;11.63;;
62673;SDS011;62269;47.594;17.638;2023-07-22T03:17:28;12.70;;;11.05;;
62673;SDS011;62269;47.594;17.638;2023-07-22T03:18:26;13.10;;;10.98;;
62673;SDS011;62269;47.594;17.638;2023-07-22T03:19:23;12.60;;;10.52;;
62673;SDS011;62269;47.594;17.638;2023-07-22T03:20:20;12.10;;;10.32;;
62673;SDS011;62269;47.594;17.638;2023-07-22T03:21:18;11.27;;;10.15;;
62673;SDS011;62269;47.594;17.638;2023-07-22T03:22:15;12.00;;;9.93;;
62673;SDS011;62269;47.594;17.638;2023-07-22T03:23:12;13.07;;;10.00;;
62673;SDS011;62269;47.594;17.638;2023-07-22T03:24:10;13.18;;;10.57;;
62673;SDS011;62269;47.594;17.638;2023-07-22T03:25:10;12.95;;;9.95;;
62673;SDS011;62269;47.594;17.638;2023-07-22T03:26:07;11.50;;;10.30;;
62673;SDS011;62269;47.594;17.638;2023-07-22T03:27:05;13.62;;;11.15;;
62673;SDS011;62269;47.594;17.638;2023-07-22T03:28:03;10.68;;;9.57;;
62673;SDS011;62269;47.594;17.638;2023-07-22T03:29:02;12.37;;;10.55;;
62673;SDS011;62269;47.594;17.638;2023-07-22T03:30:02;11.90;;;10.70;;
62673;SDS011;62269;47.594;17.638;2023-07-22T03:30:59;10.80;;;9.70;;
62673;SDS011;62269;47.594;17.638;2023-07-22T03:31:57;14.95;;;10.75;;
62673;SDS011;62269;47.594;17.638;2023-07-22T03:32:54;11.70;;;10.10;;
62673;SDS011;62269;47.594;17.638;2023-07-22T03:33:51;12.90;;;10.02;;
62673;SDS011;62269;47.594;17.638;2023-07-22T03:34:48;11.27;;;10.05;;
62673;SDS011;62269;47.594;17.638;2023-07-22T03:35:45;13.98;;;10.15;;
62673;SDS011;62269;47.594;17.638;2023-07-22T03:36:43;11.60;;;10.40;;
62673;SDS011;62269;47.594;17.638;2023-07-22T03:37:40;14.07;;;9.77;;
62673;SDS011;62269;47.594;17.638;2023-07-22T03:38:37;11.45;;;10.25;;
62673;SDS011;62269;47.594;17.638;2023-07-22T03:39:34;12.32;;;10.25;;
62673;SDS011;62269;47.594;17.638;2023-07-22T03:40:31;12.20;;;10.55;;
62673;SDS011;62269;47.594;17.638;2023-07-22T03:41:29;12.43;;;10.15;;
62673;SDS011;62269;47.594;17.638;2023-07-22T03:42:26;11.52;;;9.95;;
62673;SDS011;62269;47.594;17.638;2023-07-22T03:43:23;11.23;;;9.68;;
62673;SDS011;62269;47.594;17.638;2023-07-22T03:44:20;12.18;;;10.10;;
62673;SDS011;62269;47.594;17.638;2023-07-22T03:45:17;12.05;;;10.73;;
62673;SDS011;62269;47.594;17.638;2023-07-22T03:46:15;12.55;;;11.18;;
62673;SDS011;62269;47.594;17.638;2023-07-22T03:47:12;11.60;;;10.18;;
62673;SDS011;62269;47.594;17.638;2023-07-22T03:48:09;11.70;;;10.50;;
62673;SDS011;62269;47.594;17.638;2023-07-22T03:49:06;12.02;;;10.70;;
62673;SDS011;62269;47.594;17.638;2023-07-22T03:50:03;12.07;;;10.85;;
62673;SDS011;62269;47.594;17.638;2023-07-22T03:51:01;14.10;;;10.27;;
62673;SDS011;62269;47.594;17.638;2023-07-22T03:52:16;11.25;;;9.98;;
62673;SDS011;62269;47.594;17.638;2023-07-22T03:53:14;11.73;;;10.15;;
62673;SDS011;62269;47.594;17.638;2023-07-22T03:54:11;11.55;;;10.15;;
62673;SDS011;62269;47.594;17.638;2023-07-22T03:55:08;9.95;;;8.95;;
62673;SDS011;62269;47.594;17.638;2023-07-22T03:56:05;13.50;;;8.90;;
62673;SDS011;62269;47.594;17.638;2023-07-22T03:57:03;9.27;;;8.38;;
62673;SDS011;62269;47.594;17.638;2023-07-22T03:58:00;11.10;;;9.02;;
62673;SDS011;62269;47.594;17.638;2023-07-22T03:58:57;10.25;;;9.13;;
62673;SDS011;62269;47.594;17.638;2023-07-22T03:59:54;11.70;;;8.40;;
62673;SDS011;62269;47.594;17.638;2023-07-22T04:00:51;10.10;;;8.88;;
62673;SDS011;62269;47.594;17.638;2023-07-22T04:01:49;11.32;;;7.93;;
62673;SDS011;62269;47.594;17.638;2023-07-22T04:02:46;10.40;;;7.90;;
62673;SDS011;62269;47.594;17.638;2023-07-22T04:03:43;8.93;;;8.02;;
62673;SDS011;62269;47.594;17.638;2023-07-22T04:04:40;11.45;;;8.70;;
62673;SDS011;62269;47.594;17.638;2023-07-22T04:05:37;10.27;;;7.78;;
62673;SDS011;62269;47.594;17.638;2023-07-22T04:06:34;9.15;;;8.20;;
62673;SDS011;62269;47.594;17.638;2023-07-22T04:07:31;10.00;;;7.62;;
62673;SDS011;62269;47.594;17.638;2023-07-22T04:08:28;8.98;;;7.75;;
62673;SDS011;62269;47.594;17.638;2023-07-22T04:09:27;10.18;;;7.93;;
62673;SDS011;62269;47.594;17.638;2023-07-22T04:10:24;10.23;;;7.97;;
62673;SDS011;62269;47.594;17.638;2023-07-22T04:11:21;8.57;;;7.53;;
62673;SDS011;62269;47.594;17.638;2023-07-22T04:12:18;8.32;;;7.53;;
62673;SDS011;62269;47.594;17.638;2023-07-22T04:13:15;9.02;;;7.57;;
62673;SDS011;62269;47.594;17.638;2023-07-22T04:14:12;9.93;;;7.22;;
62673;SDS011;62269;47.594;17.638;2023-07-22T04:15:09;8.77;;;7.75;;
62673;SDS011;62269;47.594;17.638;2023-07-22T04:16:06;8.65;;;7.80;;
62673;SDS011;62269;47.594;17.638;2023-07-22T04:17:04;8.50;;;7.30;;
62673;SDS011;62269;47.594;17.638;2023-07-22T04:18:01;9.23;;;7.78;;
62673;SDS011;62269;47.594;17.638;2023-07-22T04:18:58;7.78;;;6.75;;
62673;SDS011;62269;47.594;17.638;2023-07-22T04:19:55;7.68;;;6.90;;
62673;SDS011;62269;47.594;17.638;2023-07-22T04:20:55;10.02;;;7.03;;
62673;SDS011;62269;47.594;17.638;2023-07-22T04:21:53;8.32;;;7.43;;
62673;SDS011;62269;47.594;17.638;2023-07-22T04:22:51;7.43;;;6.72;;
62673;SDS011;62269;47.594;17.638;2023-07-22T04:23:48;9.75;;;6.97;;
62673;SDS011;62269;47.594;17.638;2023-07-22T04:24:45;9.82;;;7.12;;
62673;SDS011;62269;47.594;17.638;2023-07-22T04:25:45;8.00;;;7.05;;
62673;SDS011;62269;47.594;17.638;2023-07-22T04:26:42;7.00;;;6.30;;
62673;SDS011;62269;47.594;17.638;2023-07-22T04:27:39;7.20;;;6.43;;
62673;SDS011;62269;47.594;17.638;2023-07-22T04:28:36;6.93;;;6.22;;
62673;SDS011;62269;47.594;17.638;2023-07-22T04:29:34;7.90;;;5.78;;
62673;SDS011;62269;47.594;17.638;2023-07-22T04:30:31;7.60;;;6.10;;
62673;SDS011;62269;47.594;17.638;2023-07-22T04:31:28;7.53;;;6.45;;
62673;SDS011;62269;47.594;17.638;2023-07-22T04:32:26;7.80;;;5.78;;
62673;SDS011;62269;47.594;17.638;2023-07-22T04:33:26;8.93;;;6.57;;
62673;SDS011;62269;47.594;17.638;2023-07-22T04:34:27;7.40;;;5.87;;
62673;SDS011;62269;47.594;17.638;2023-07-22T04:35:25;7.57;;;5.93;;
62673;SDS011;62269;47.594;17.638;2023-07-22T04:36:22;7.18;;;5.95;;
62673;SDS011;62269;47.594;17.638;2023-07-22T04:37:20;7.70;;;6.28;;
62673;SDS011;62269;47.594;17.638;2023-07-22T04:38:17;6.97;;;5.85;;
62673;SDS011;62269;47.594;17.638;2023-07-22T04:39:14;7.20;;;6.10;;
62673;SDS011;62269;47.594;17.638;2023-07-22T04:40:11;7.60;;;6.03;;
62673;SDS011;62269;47.594;17.638;2023-07-22T04:41:10;7.07;;;5.82;;
62673;SDS011;62269;47.594;17.638;2023-07-22T04:42:07;6.70;;;5.95;;
62673;SDS011;62269;47.594;17.638;2023-07-22T04:43:05;6.85;;;6.10;;
62673;SDS011;62269;47.594;17.638;2023-07-22T04:44:02;6.20;;;5.60;;
62673;SDS011;62269;47.594;17.638;2023-07-22T04:44:59;7.85;;;5.72;;
62673;SDS011;62269;47.594;17.638;2023-07-22T04:45:56;7.12;;;6.15;;
62673;SDS011;62269;47.594;17.638;2023-07-22T04:46:53;8.57;;;5.85;;
62673;SDS011;62269;47.594;17.638;2023-07-22T04:47:51;7.57;;;5.80;;
62673;SDS011;62269;47.594;17.638;2023-07-22T04:48:48;6.32;;;5.45;;
62673;SDS011;62269;47.594;17.638;2023-07-22T04:49:45;7.75;;;5.68;;
62673;SDS011;62269;47.594;17.638;2023-07-22T04:50:43;5.55;;;5.00;;
62673;SDS011;62269;47.594;17.638;2023-07-22T04:51:41;9.07;;;5.68;;
62673;SDS011;62269;47.594;17.638;2023-07-22T04:52:38;6.60;;;5.47;;
62673;SDS011;62269;47.594;17.638;2023-07-22T04:53:38;9.68;;;5.50;;
62673;SDS011;62269;47.594;17.638;2023-07-22T04:54:35;6.05;;;5.45;;
62673;SDS011;62269;47.594;17.638;2023-07-22T04:55:32;6.57;;;5.32;;
62673;SDS011;62269;47.594;17.638;2023-07-22T04:56:30;7.05;;;5.82;;
62673;SDS011;62269;47.594;17.638;2023-07-22T04:57:27;6.40;;;5.80;;
62673;SDS011;62269;47.594;17.638;2023-07-22T04:58:24;6.90;;;5.90;;
62673;SDS011;62269;47.594;17.638;2023-07-22T04:59:21;6.07;;;5.45;;
62673;SDS011;62269;47.594;17.638;2023-07-22T05:00:18;6.55;;;5.60;;
62673;SDS011;62269;47.594;17.638;2023-07-22T05:01:15;6.00;;;5.40;;
62673;SDS011;62269;47.594;17.638;2023-07-22T05:02:13;6.95;;;5.70;;
62673;SDS011;62269;47.594;17.638;2023-07-22T05:03:10;7.57;;;5.50;;
62673;SDS011;62269;47.594;17.638;2023-07-22T05:04:07;6.10;;;5.50;;
62673;SDS011;62269;47.594;17.638;2023-07-22T05:05:04;6.20;;;5.60;;
62673;SDS011;62269;47.594;17.638;2023-07-22T05:06:01;6.50;;;5.53;;
62673;SDS011;62269;47.594;17.638;2023-07-22T05:06:59;8.75;;;5.78;;
62673;SDS011;62269;47.594;17.638;2023-07-22T05:07:56;10.25;;;5.90;;
62673;SDS011;62269;47.594;17.638;2023-07-22T05:08:53;5.72;;;5.07;;
62673;SDS011;62269;47.594;17.638;2023-07-22T05:09:50;9.55;;;5.57;;
62673;SDS011;62269;47.594;17.638;2023-07-22T05:10:50;7.30;;;5.25;;
62673;SDS011;62269;47.594;17.638;2023-07-22T05:11:47;7.68;;;5.18;;
62673;SDS011;62269;47.594;17.638;2023-07-22T05:12:44;7.15;;;5.50;;
62673;SDS011;62269;47.594;17.638;2023-07-22T05:13:42;7.45;;;5.70;;
62673;SDS011;62269;47.594;17.638;2023-07-22T05:14:39;6.87;;;5.80;;
62673;SDS011;62269;47.594;17.638;2023-07-22T05:15:36;5.20;;;4.70;;
62673;SDS011;62269;47.594;17.638;2023-07-22T05:16:33;6.30;;;5.50;;
62673;SDS011;62269;47.594;17.638;2023-07-22T05:17:30;6.37;;;5.20;;
62673;SDS011;62269;47.594;17.638;2023-07-22T05:18:28;9.40;;;5.75;;
62673;SDS011;62269;47.594;17.638;2023-07-22T05:19:25;5.70;;;5.10;;
62673;SDS011;62269;47.594;17.638;2023-07-22T05:20:22;9.00;;;5.22;;
62673;SDS011;62269;47.594;17.638;2023-07-22T05:21:19;9.27;;;5.87;;
62673;SDS011;62269;47.594;17.638;2023-07-22T05:22:16;7.45;;;5.50;;
62673;SDS011;62269;47.594;17.638;2023-07-22T05:23:13;6.00;;;5.40;;
62673;SDS011;62269;47.594;17.638;2023-07-22T05:24:10;6.60;;;5.22;;
62673;SDS011;62269;47.594;17.638;2023-07-22T05:25:07;7.82;;;5.12;;
62673;SDS011;62269;47.594;17.638;2023-07-22T05:26:06;6.43;;;5.07;;
62673;SDS011;62269;47.594;17.638;2023-07-22T05:27:03;8.25;;;5.30;;
62673;SDS011;62269;47.594;17.638;2023-07-22T05:28:05;8.63;;;5.65;;
62673;SDS011;62269;47.594;17.638;2023-07-22T05:29:02;7.28;;;5.37;;
62673;SDS011;62269;47.594;17.638;2023-07-22T05:29:59;6.05;;;5.12;;
62673;SDS011;62269;47.594;17.638;2023-07-22T05:30:57;9.63;;;5.55;;
62673;SDS011;62269;47.594;17.638;2023-07-22T05:31:54;7.25;;;5.00;;
62673;SDS011;62269;47.594;17.638;2023-07-22T05:32:54;11.45;;;5.40;;
62673;SDS011;62269;47.594;17.638;2023-07-22T05:33:51;11.18;;;5.18;;
62673;SDS011;62269;47.594;17.638;2023-07-22T05:34:48;5.62;;;4.75;;